createdAt,value
2017-02-01T00:00:16.774Z,49.41
2017-02-01T00:01:16.806Z,49.6
2017-02-01T00:02:16.438Z,49.6
2017-02-01T00:03:16.856Z,49.6
2017-02-01T00:04:16.486Z,49.6
2017-02-01T00:05:16.914Z,49.41
2017-02-01T00:06:16.938Z,49.41
2017-02-01T00:07:16.564Z,49.41
2017-02-01T00:08:16.995Z,49.7
2017-02-01T00:09:17.025Z,49.6
2017-02-01T00:10:16.652Z,49.02
2017-02-01T00:11:16.681Z,49.12
2017-02-01T00:12:16.707Z,49.12
2017-02-01T00:13:17.127Z,49.02
2017-02-01T00:14:17.156Z,49.41
2017-02-01T00:15:16.785Z,48.74
2017-02-01T00:16:17.209Z,49.22
2017-02-01T00:17:16.842Z,48.93
2017-02-01T00:18:17.267Z,48.93
2017-02-01T00:19:17.291Z,49.02
2017-02-01T00:20:16.921Z,49.12
2017-02-01T00:21:17.345Z,49.32
2017-02-01T00:22:17.370Z,49.41
2017-02-01T00:23:17.398Z,49.12
2017-02-01T00:24:17.423Z,49.32
2017-02-01T00:25:17.702Z,49.32
2017-02-01T00:26:17.082Z,48.74
2017-02-01T00:27:17.505Z,49.12
2017-02-01T00:28:17.134Z,49.12
2017-02-01T00:29:17.554Z,48.93
2017-02-01T00:30:17.436Z,48.93
2017-02-01T00:31:17.611Z,48.83
2017-02-01T00:32:17.637Z,48.93
2017-02-01T00:33:17.270Z,48.93
2017-02-01T00:34:17.691Z,48.93
2017-02-01T00:35:17.575Z,49.02
2017-02-01T00:36:17.744Z,48.54
2017-02-01T00:37:17.772Z,48.9
2017-02-01T00:38:17.405Z,48.61
2017-02-01T00:39:17.821Z,48.52
2017-02-01T00:40:18.354Z,48.44
2017-02-01T00:41:17.888Z,48.64
2017-02-01T00:42:17.909Z,48.64
2017-02-01T00:43:17.938Z,48.64
2017-02-01T00:44:17.961Z,48.74
2017-02-01T00:45:18.234Z,48.81
2017-02-01T00:46:18.019Z,48.43
2017-02-01T00:47:18.040Z,48.61
2017-02-01T00:48:18.063Z,48.52
2017-02-01T00:49:18.100Z,48.52
2017-02-01T00:50:17.977Z,48.43
2017-02-01T00:51:18.147Z,48.61
2017-02-01T00:52:18.168Z,48.43
2017-02-01T00:53:18.196Z,48.61
2017-02-01T00:54:18.229Z,48.52
2017-02-01T00:55:18.507Z,48.43
2017-02-01T00:56:18.279Z,48.52
2017-02-01T00:57:18.308Z,48.25
2017-02-01T00:58:18.333Z,48.52
2017-02-01T00:59:18.361Z,48.23
2017-02-01T01:00:18.390Z,48.52
2017-02-01T01:01:18.046Z,48.23
2017-02-01T01:02:18.435Z,48.23
2017-02-01T01:03:18.068Z,48.61
2017-02-01T01:04:18.492Z,48.23
2017-02-01T01:05:18.519Z,48.23
2017-02-01T01:06:18.150Z,48.23
2017-02-01T01:07:18.579Z,48.43
2017-02-01T01:08:18.199Z,48.23
2017-02-01T01:09:18.228Z,48.43
2017-02-01T01:10:18.281Z,48.52
2017-02-01T01:11:18.682Z,48.52
2017-02-01T01:12:18.312Z,48.03
2017-02-01T01:13:18.339Z,48.43
2017-02-01T01:14:18.756Z,48.52
2017-02-01T01:15:18.784Z,48.33
2017-02-01T01:16:19.076Z,48.23
2017-02-01T01:17:18.440Z,48.13
2017-02-01T01:18:18.469Z,48.13
2017-02-01T01:19:18.494Z,48.33
2017-02-01T01:20:18.523Z,47.56
2017-02-01T01:21:19.192Z,48.03
2017-02-01T01:22:18.572Z,48.13
2017-02-01T01:23:18.996Z,47.65
2017-02-01T01:24:18.634Z,48.13
2017-02-01T01:25:19.044Z,47.94
2017-02-01T01:26:19.331Z,48.13
2017-02-01T01:27:19.192Z,47.65
2017-02-01T01:28:19.128Z,47.85
2017-02-01T01:29:19.153Z,47.94
2017-02-01T01:30:18.789Z,47.85
2017-02-01T01:31:18.813Z,47.65
2017-02-01T01:32:18.842Z,47.94
2017-02-01T01:33:18.867Z,47.94
2017-02-01T01:34:19.286Z,48.03
2017-02-01T01:35:19.316Z,48.03
2017-02-01T01:36:19.333Z,47.94
2017-02-01T01:37:18.975Z,47.94
2017-02-01T01:38:19.399Z,48.03
2017-02-01T01:39:19.422Z,48.13
2017-02-01T01:40:19.448Z,47.85
2017-02-01T01:41:19.080Z,47.94
2017-02-01T01:42:19.110Z,47.46
2017-02-01T01:43:19.524Z,47.94
2017-02-01T01:44:19.550Z,47.36
2017-02-01T01:45:19.179Z,47.46
2017-02-01T01:46:19.607Z,47.75
2017-02-01T01:47:19.883Z,47.56
2017-02-01T01:48:19.265Z,47.56
2017-02-01T01:49:19.690Z,47.36
2017-02-01T01:50:19.707Z,47.75
2017-02-01T01:51:19.731Z,47.56
2017-02-01T01:52:19.619Z,47.27
2017-02-01T01:53:19.792Z,47.27
2017-02-01T01:54:19.821Z,47.46
2017-02-01T01:55:19.843Z,47.34
2017-02-01T01:56:19.879Z,47.46
2017-02-01T01:57:20.147Z,47.65
2017-02-01T01:58:19.920Z,47.15
2017-02-01T01:59:19.957Z,47.27
2017-02-01T02:00:19.981Z,47.24
2017-02-01T02:01:20.002Z,47.46
2017-02-01T02:02:20.278Z,47.44
2017-02-01T02:03:20.056Z,47.46
2017-02-01T02:04:19.688Z,47.44
2017-02-01T02:05:19.711Z,47.24
2017-02-01T02:06:19.738Z,47.44
2017-02-01T02:07:20.414Z,47.63
2017-02-01T02:08:20.187Z,47.56
2017-02-01T02:09:20.216Z,47.44
2017-02-01T02:10:19.844Z,47.53
2017-02-01T02:11:20.270Z,47.24
2017-02-01T02:12:20.153Z,46.95
2017-02-01T02:13:20.323Z,47.15
2017-02-01T02:14:20.346Z,47.24
2017-02-01T02:15:20.376Z,47.24
2017-02-01T02:16:20.401Z,47.15
2017-02-01T02:17:20.684Z,47.15
2017-02-01T02:18:20.061Z,47.34
2017-02-01T02:19:20.478Z,47.05
2017-02-01T02:20:20.507Z,47.15
2017-02-01T02:21:20.532Z,47.24
2017-02-01T02:22:20.561Z,47.24
2017-02-01T02:23:20.190Z,47.15
2017-02-01T02:24:20.610Z,46.95
2017-02-01T02:25:20.638Z,46.95
2017-02-01T02:26:20.665Z,46.95
2017-02-01T02:27:20.689Z,47.05
2017-02-01T02:28:20.713Z,46.67
2017-02-01T02:29:20.350Z,47.24
2017-02-01T02:30:20.766Z,46.95
2017-02-01T02:31:20.800Z,46.86
2017-02-01T02:32:20.855Z,46.95
2017-02-01T02:33:20.847Z,47.05
2017-02-01T02:34:20.482Z,47.24
2017-02-01T02:35:20.902Z,47.05
2017-02-01T02:36:20.572Z,46.86
2017-02-01T02:37:20.558Z,46.67
2017-02-01T02:38:20.584Z,46.57
2017-02-01T02:39:20.618Z,46.77
2017-02-01T02:40:21.035Z,46.47
2017-02-01T02:41:21.062Z,46.28
2017-02-01T02:42:21.088Z,46.28
2017-02-01T02:43:20.718Z,46.28
2017-02-01T02:44:20.746Z,46.28
2017-02-01T02:45:21.167Z,46.38
2017-02-01T02:46:20.800Z,46.38
2017-02-01T02:47:21.219Z,46.38
2017-02-01T02:48:21.246Z,46.57
2017-02-01T02:49:21.274Z,46.57
2017-02-01T02:50:20.899Z,46.28
2017-02-01T02:51:21.332Z,46.38
2017-02-01T02:52:20.961Z,46.38
2017-02-01T02:53:21.240Z,46.38
2017-02-01T02:54:21.014Z,46.19
2017-02-01T02:55:21.435Z,46.19
2017-02-01T02:56:21.064Z,46.09
2017-02-01T02:57:21.480Z,46.19
2017-02-01T02:58:21.765Z,46.28
2017-02-01T02:59:21.533Z,46.38
2017-02-01T03:00:21.167Z,46.38
2017-02-01T03:01:21.191Z,46.38
2017-02-01T03:02:21.617Z,46.28
2017-02-01T03:03:21.748Z,46.28
2017-02-01T03:04:21.670Z,46.47
2017-02-01T03:05:21.702Z,46.57
2017-02-01T03:06:21.725Z,46.47
2017-02-01T03:07:21.745Z,46.67
2017-02-01T03:08:21.382Z,46.57
2017-02-01T03:09:21.803Z,46.77
2017-02-01T03:10:21.831Z,46.19
2017-02-01T03:11:21.856Z,46.57
2017-02-01T03:12:21.481Z,46.09
2017-02-01T03:13:21.513Z,46.28
2017-02-01T03:14:21.936Z,46.28
2017-02-01T03:15:21.962Z,46.19
2017-02-01T03:16:21.985Z,46.19
2017-02-01T03:17:22.016Z,46.19
2017-02-01T03:18:21.647Z,46.09
2017-02-01T03:19:22.070Z,45.9
2017-02-01T03:20:22.092Z,45.99
2017-02-01T03:21:21.729Z,46.47
2017-02-01T03:22:21.752Z,46.47
2017-02-01T03:23:22.178Z,45.9
2017-02-01T03:24:22.203Z,45.9
2017-02-01T03:25:22.224Z,46.09
2017-02-01T03:26:21.861Z,45.99
2017-02-01T03:27:22.282Z,45.7
2017-02-01T03:28:21.915Z,46.28
2017-02-01T03:29:22.328Z,45.8
2017-02-01T03:30:22.355Z,45.9
2017-02-01T03:31:22.380Z,45.7
2017-02-01T03:32:22.014Z,45.8
2017-02-01T03:33:22.441Z,45.7
2017-02-01T03:34:22.071Z,45.9
2017-02-01T03:35:22.493Z,45.9
2017-02-01T03:36:22.116Z,45.7
2017-02-01T03:37:22.150Z,45.99
2017-02-01T03:38:22.573Z,46.09
2017-02-01T03:39:22.596Z,46.09
2017-02-01T03:40:22.248Z,45.99
2017-02-01T03:41:22.645Z,45.9
2017-02-01T03:42:22.677Z,45.61
2017-02-01T03:43:22.698Z,45.42
2017-02-01T03:44:22.975Z,46.09
2017-02-01T03:45:22.356Z,45.99
2017-02-01T03:46:22.785Z,45.42
2017-02-01T03:47:22.806Z,45.51
2017-02-01T03:48:22.827Z,45.7
2017-02-01T03:49:22.716Z,45.8
2017-02-01T03:50:22.489Z,45.51
2017-02-01T03:51:22.915Z,45.51
2017-02-01T03:52:22.538Z,45.8
2017-02-01T03:53:22.564Z,45.51
2017-02-01T03:54:22.849Z,45.32
2017-02-01T03:55:23.017Z,45.61
2017-02-01T03:56:23.047Z,45.7
2017-02-01T03:57:23.070Z,45.8
2017-02-01T03:58:23.096Z,45.9
2017-02-01T03:59:23.378Z,46.09
2017-02-01T04:00:22.753Z,45.42
2017-02-01T04:01:22.782Z,45.29
2017-02-01T04:02:23.202Z,45.22
2017-02-01T04:03:23.228Z,45.03
2017-02-01T04:04:23.508Z,45.01
2017-02-01T04:05:22.885Z,45.01
2017-02-01T04:06:23.315Z,45.03
2017-02-01T04:07:23.332Z,45.32
2017-02-01T04:08:23.362Z,45.29
2017-02-01T04:09:23.648Z,45.2
2017-02-01T04:10:23.417Z,45.1
2017-02-01T04:11:23.441Z,45.2
2017-02-01T04:12:23.071Z,45.1
2017-02-01T04:13:23.096Z,45.2
2017-02-01T04:14:23.116Z,45.01
2017-02-01T04:15:23.546Z,45.01
2017-02-01T04:16:23.574Z,45.2
2017-02-01T04:17:23.596Z,45.2
2017-02-01T04:18:23.628Z,45.2
2017-02-01T04:19:23.645Z,45.1
2017-02-01T04:20:23.679Z,45.13
2017-02-01T04:21:23.704Z,45.39
2017-02-01T04:22:23.727Z,45.42
2017-02-01T04:23:23.360Z,45.39
2017-02-01T04:24:23.385Z,45.2
2017-02-01T04:25:23.406Z,45.49
2017-02-01T04:26:23.831Z,45.49
2017-02-01T04:27:23.863Z,45.2
2017-02-01T04:28:23.495Z,45.01
2017-02-01T04:29:23.909Z,45.2
2017-02-01T04:30:23.536Z,45.01
2017-02-01T04:31:23.571Z,45.03
2017-02-01T04:32:23.995Z,45.29
2017-02-01T04:33:24.020Z,45.1
2017-02-01T04:34:23.649Z,44.62
2017-02-01T04:35:23.665Z,44.82
2017-02-01T04:36:23.699Z,45.2
2017-02-01T04:37:24.122Z,44.91
2017-02-01T04:38:24.149Z,44.24
2017-02-01T04:39:24.177Z,44.72
2017-02-01T04:40:23.806Z,44.53
2017-02-01T04:41:24.223Z,44.14
2017-02-01T04:42:23.860Z,44.62
2017-02-01T04:43:23.884Z,44.53
2017-02-01T04:44:24.309Z,44.43
2017-02-01T04:45:24.594Z,44.62
2017-02-01T04:46:24.358Z,44.62
2017-02-01T04:47:24.415Z,44.53
2017-02-01T04:48:24.015Z,44.72
2017-02-01T04:49:24.438Z,44.43
2017-02-01T04:50:24.713Z,44.62
2017-02-01T04:51:24.493Z,44.62
2017-02-01T04:52:24.513Z,44.72
2017-02-01T04:53:24.148Z,44.72
2017-02-01T04:54:24.569Z,44.62
2017-02-01T04:55:24.878Z,44.82
2017-02-01T04:56:24.622Z,44.62
2017-02-01T04:57:24.650Z,44.53
2017-02-01T04:58:24.668Z,44.53
2017-02-01T04:59:24.304Z,44.72
2017-02-01T05:00:24.833Z,44.62
2017-02-01T05:01:24.350Z,44.82
2017-02-01T05:02:24.778Z,44.34
2017-02-01T05:03:24.800Z,44.43
2017-02-01T05:04:24.832Z,44.05
2017-02-01T05:05:24.456Z,44.05
2017-02-01T05:06:24.886Z,44.14
2017-02-01T05:07:24.904Z,44.34
2017-02-01T05:08:24.941Z,44.24
2017-02-01T05:09:24.961Z,44.34
2017-02-01T05:10:24.592Z,44.05
2017-02-01T05:11:24.621Z,44.24
2017-02-01T05:12:25.050Z,44.05
2017-02-01T05:13:24.667Z,44.14
2017-02-01T05:14:24.695Z,44.14
2017-02-01T05:15:25.116Z,44.05
2017-02-01T05:16:24.744Z,44.14
2017-02-01T05:17:25.171Z,44.05
2017-02-01T05:18:25.195Z,44.34
2017-02-01T05:19:25.225Z,44.14
2017-02-01T05:20:24.852Z,44.43
2017-02-01T05:21:24.882Z,44.34
2017-02-01T05:22:24.910Z,44.53
2017-02-01T05:23:25.326Z,44.43
2017-02-01T05:24:24.954Z,44.43
2017-02-01T05:25:24.988Z,44.05
2017-02-01T05:26:25.013Z,43.95
2017-02-01T05:27:25.040Z,43.76
2017-02-01T05:28:25.460Z,43.85
2017-02-01T05:29:25.488Z,43.85
2017-02-01T05:30:25.116Z,43.57
2017-02-01T05:31:25.141Z,43.95
2017-02-01T05:32:25.566Z,43.95
2017-02-01T05:33:25.592Z,43.95
2017-02-01T05:34:25.220Z,43.68
2017-02-01T05:35:25.647Z,43.78
2017-02-01T05:36:25.669Z,43.78
2017-02-01T05:37:25.713Z,43.88
2017-02-01T05:38:25.722Z,43.68
2017-02-01T05:39:25.747Z,43.59
2017-02-01T05:40:25.372Z,43.59
2017-02-01T05:41:26.081Z,43.68
2017-02-01T05:42:25.827Z,43.97
2017-02-01T05:43:25.458Z,43.78
2017-02-01T05:44:25.879Z,43.68
2017-02-01T05:45:25.904Z,43.97
2017-02-01T05:46:26.183Z,43.68
2017-02-01T05:47:25.956Z,43.3
2017-02-01T05:48:25.981Z,43.49
2017-02-01T05:49:25.613Z,43.59
2017-02-01T05:50:25.640Z,43.59
2017-02-01T05:51:26.320Z,43.49
2017-02-01T05:52:26.098Z,43.59
2017-02-01T05:53:25.726Z,43.49
2017-02-01T05:54:26.151Z,43.3
2017-02-01T05:55:26.171Z,43.2
2017-02-01T05:56:26.051Z,43.3
2017-02-01T05:57:26.216Z,43.2
2017-02-01T05:58:25.844Z,43.2
2017-02-01T05:59:26.277Z,43.32
2017-02-01T06:00:26.299Z,43.01
2017-02-01T06:01:26.579Z,43.2
2017-02-01T06:02:26.348Z,42.93
2017-02-01T06:03:26.386Z,42.93
2017-02-01T06:04:26.399Z,43.13
2017-02-01T06:05:26.438Z,42.84
2017-02-01T06:06:26.311Z,42.55
2017-02-01T06:07:26.479Z,42.55
2017-02-01T06:08:26.509Z,43.23
2017-02-01T06:09:26.541Z,43.23
2017-02-01T06:10:26.563Z,43.23
2017-02-01T06:11:26.451Z,42.93
2017-02-01T06:12:26.605Z,42.65
2017-02-01T06:13:26.636Z,42.55
2017-02-01T06:14:26.669Z,43.23
2017-02-01T06:15:26.694Z,42.65
2017-02-01T06:16:26.576Z,42.65
2017-02-01T06:17:26.347Z,43.13
2017-02-01T06:18:26.771Z,43.13
2017-02-01T06:19:26.800Z,42.55
2017-02-01T06:20:26.430Z,42.93
2017-02-01T06:21:26.856Z,42.74
2017-02-01T06:22:26.877Z,42.93
2017-02-01T06:23:26.911Z,42.84
2017-02-01T06:24:26.932Z,42.96
2017-02-01T06:25:26.569Z,42.84
2017-02-01T06:26:26.588Z,43.13
2017-02-01T06:27:27.005Z,42.74
2017-02-01T06:28:27.039Z,43.13
2017-02-01T06:29:27.060Z,43.05
2017-02-01T06:30:27.087Z,42.84
2017-02-01T06:31:27.116Z,42.67
2017-02-01T06:32:26.745Z,42.67
2017-02-01T06:33:27.174Z,42.57
2017-02-01T06:34:26.803Z,43.23
2017-02-01T06:35:27.226Z,42.65
2017-02-01T06:36:27.257Z,42.76
2017-02-01T06:37:27.277Z,43.05
2017-02-01T06:38:26.905Z,43.15
2017-02-01T06:39:26.931Z,43.24
2017-02-01T06:40:26.959Z,43.05
2017-02-01T06:41:27.380Z,42.96
2017-02-01T06:42:27.408Z,43.03
2017-02-01T06:43:27.433Z,43.05
2017-02-01T06:44:27.067Z,43.05
2017-02-01T06:45:27.486Z,43.05
2017-02-01T06:46:27.115Z,43.05
2017-02-01T06:47:27.392Z,43.15
2017-02-01T06:48:27.172Z,43.15
2017-02-01T06:49:27.589Z,43.34
2017-02-01T06:50:27.228Z,42.96
2017-02-01T06:51:27.646Z,42.86
2017-02-01T06:52:27.527Z,42.76
2017-02-01T06:53:27.305Z,43.24
2017-02-01T06:54:27.325Z,43.05
2017-02-01T06:55:27.750Z,43.15
2017-02-01T06:56:27.779Z,43.15
2017-02-01T06:57:27.655Z,42.47
2017-02-01T06:58:27.441Z,42.86
2017-02-01T06:59:27.861Z,42.86
2017-02-01T07:00:27.489Z,43.24
2017-02-01T07:01:27.908Z,42.47
2017-02-01T07:02:28.190Z,42.67
2017-02-01T07:03:27.967Z,43.15
2017-02-01T07:04:27.992Z,42.67
2017-02-01T07:05:28.012Z,42.67
2017-02-01T07:06:28.045Z,42.67
2017-02-01T07:07:28.180Z,43.54
2017-02-01T07:08:27.702Z,43.44
2017-02-01T07:09:27.727Z,42.84
2017-02-01T07:10:28.149Z,43.54
2017-02-01T07:11:27.785Z,42.96
2017-02-01T07:12:28.061Z,42.67
2017-02-01T07:13:28.237Z,42.86
2017-02-01T07:14:28.257Z,42.86
2017-02-01T07:15:28.279Z,42.86
2017-02-01T07:16:27.911Z,43.13
2017-02-01T07:17:28.194Z,43.03
2017-02-01T07:18:28.401Z,42.96
2017-02-01T07:19:27.996Z,42.86
2017-02-01T07:20:28.028Z,43.05
2017-02-01T07:21:28.448Z,43.13
2017-02-01T07:22:28.327Z,42.96
2017-02-01T07:23:28.099Z,42.96
2017-02-01T07:24:28.129Z,43.13
2017-02-01T07:25:28.155Z,43.05
2017-02-01T07:26:28.581Z,43.24
2017-02-01T07:27:28.214Z,43.15
2017-02-01T07:28:28.629Z,43.24
2017-02-01T07:29:28.663Z,43.34
2017-02-01T07:30:28.287Z,43.13
2017-02-01T07:31:28.712Z,42.67
2017-02-01T07:32:28.737Z,43.24
2017-02-01T07:33:28.761Z,43.15
2017-02-01T07:34:28.394Z,42.57
2017-02-01T07:35:28.418Z,43.15
2017-02-01T07:36:28.852Z,42.57
2017-02-01T07:37:28.471Z,42.47
2017-02-01T07:38:28.900Z,42.47
2017-02-01T07:39:28.923Z,42.76
2017-02-01T07:40:28.951Z,42.67
2017-02-01T07:41:28.975Z,42.65
2017-02-01T07:42:28.607Z,42.76
2017-02-01T07:43:28.628Z,42.57
2017-02-01T07:44:29.053Z,42.57
2017-02-01T07:45:29.081Z,42.47
2017-02-01T07:46:29.115Z,42.67
2017-02-01T07:47:29.140Z,42.47
2017-02-01T07:48:28.766Z,42.26
2017-02-01T07:49:29.189Z,42.46
2017-02-01T07:50:28.819Z,42.26
2017-02-01T07:51:28.847Z,42.46
2017-02-01T07:52:29.264Z,42.46
2017-02-01T07:53:28.903Z,42.26
2017-02-01T07:54:29.325Z,42.55
2017-02-01T07:55:28.954Z,42.65
2017-02-01T07:56:29.375Z,43.23
2017-02-01T07:57:29.399Z,42.74
2017-02-01T07:58:29.681Z,43.03
2017-02-01T07:59:29.060Z,43.03
2017-02-01T08:00:29.085Z,42.84
2017-02-01T08:01:29.115Z,43.41
2017-02-01T08:02:29.535Z,42.65
2017-02-01T08:03:29.421Z,42.93
2017-02-01T08:04:29.194Z,43.23
2017-02-01T08:05:29.626Z,43.41
2017-02-01T08:06:29.247Z,43.41
2017-02-01T08:07:29.268Z,42.93
2017-02-01T08:08:29.949Z,43.51
2017-02-01T08:09:29.724Z,43.23
2017-02-01T08:10:29.749Z,43.23
2017-02-01T08:11:29.775Z,43.23
2017-02-01T08:12:29.807Z,43.32
2017-02-01T08:13:29.936Z,43.03
2017-02-01T08:14:29.858Z,43.23
2017-02-01T08:15:29.881Z,43.13
2017-02-01T08:16:29.515Z,43.32
2017-02-01T08:17:29.936Z,43.13
2017-02-01T08:18:30.211Z,43.23
2017-02-01T08:19:29.990Z,43.23
2017-02-01T08:20:30.046Z,43.03
2017-02-01T08:21:30.038Z,43.32
2017-02-01T08:22:30.068Z,43.13
2017-02-01T08:23:30.348Z,43.03
2017-02-01T08:24:30.117Z,43.23
2017-02-01T08:25:30.154Z,43.03
2017-02-01T08:26:30.175Z,43.03
2017-02-01T08:27:30.203Z,43.13
2017-02-01T08:28:30.480Z,43.13
2017-02-01T08:29:30.293Z,42.93
2017-02-01T08:30:29.886Z,43.13
2017-02-01T08:31:29.914Z,43.03
2017-02-01T08:32:29.940Z,42.74
2017-02-01T08:33:29.970Z,42.55
2017-02-01T08:34:30.394Z,43.13
2017-02-01T08:35:30.417Z,42.55
2017-02-01T08:36:30.046Z,43.51
2017-02-01T08:37:30.467Z,43.41
2017-02-01T08:38:30.500Z,42.84
2017-02-01T08:39:30.124Z,42.93
2017-02-01T08:40:30.549Z,43.03
2017-02-01T08:41:30.177Z,42.93
2017-02-01T08:42:30.206Z,42.93
2017-02-01T08:43:30.627Z,42.84
2017-02-01T08:44:30.906Z,43.13
2017-02-01T08:45:30.284Z,43.03
2017-02-01T08:46:30.706Z,43.13
2017-02-01T08:47:30.760Z,43.03
2017-02-01T08:48:30.764Z,43.13
2017-02-01T08:49:31.291Z,42.46
2017-02-01T08:50:30.814Z,43.03
2017-02-01T08:51:30.450Z,42.46
2017-02-01T08:52:30.469Z,42.46
2017-02-01T08:53:30.498Z,42.65
2017-02-01T08:54:31.180Z,42.55
2017-02-01T08:55:30.552Z,42.65
2017-02-01T08:56:30.579Z,42.65
2017-02-01T08:57:31.001Z,42.55
2017-02-01T08:58:30.634Z,42.16
2017-02-01T08:59:31.055Z,42.26
2017-02-01T09:00:31.079Z,42.55
2017-02-01T09:01:30.703Z,42.46
2017-02-01T09:02:31.134Z,42.55
2017-02-01T09:03:31.161Z,42.55
2017-02-01T09:04:31.185Z,42.36
2017-02-01T09:05:31.210Z,42.36
2017-02-01T09:06:31.239Z,42.26
2017-02-01T09:07:30.872Z,42.36
2017-02-01T09:08:30.901Z,42.16
2017-02-01T09:09:31.318Z,42.26
2017-02-01T09:10:31.347Z,42.16
2017-02-01T09:11:31.375Z,42.46
2017-02-01T09:12:31.004Z,42.46
2017-02-01T09:13:31.425Z,42.46
2017-02-01T09:14:31.465Z,42.16
2017-02-01T09:15:31.085Z,41.97
2017-02-01T09:16:31.504Z,41.88
2017-02-01T09:17:31.526Z,42.26
2017-02-01T09:18:31.172Z,42.26
2017-02-01T09:19:31.581Z,41.88
2017-02-01T09:20:31.609Z,42.07
2017-02-01T09:21:31.234Z,41.97
2017-02-01T09:22:31.662Z,42.36
2017-02-01T09:23:31.291Z,42.26
2017-02-01T09:24:31.722Z,42.26
2017-02-01T09:25:31.993Z,42.07
2017-02-01T09:26:31.369Z,42.26
2017-02-01T09:27:31.791Z,42.16
2017-02-01T09:28:31.827Z,42.53
2017-02-01T09:29:31.849Z,42.36
2017-02-01T09:30:31.725Z,42.07
2017-02-01T09:31:31.505Z,42.16
2017-02-01T09:32:31.926Z,42.26
2017-02-01T09:33:31.956Z,42.24
2017-02-01T09:34:31.583Z,42.46
2017-02-01T09:35:31.859Z,42.16
2017-02-01T09:36:32.033Z,42.26
2017-02-01T09:37:31.670Z,42.05
2017-02-01T09:38:32.100Z,42.14
2017-02-01T09:39:32.114Z,42.14
2017-02-01T09:40:32.391Z,42.24
2017-02-01T09:41:31.768Z,42.26
2017-02-01T09:42:32.190Z,42.14
2017-02-01T09:43:32.223Z,42.16
2017-02-01T09:44:32.248Z,42.16
2017-02-01T09:45:32.524Z,41.95
2017-02-01T09:46:31.897Z,41.95
2017-02-01T09:47:32.329Z,42.33
2017-02-01T09:48:31.954Z,42.33
2017-02-01T09:49:32.391Z,42.24
2017-02-01T09:50:32.258Z,42.24
2017-02-01T09:51:32.037Z,42.43
2017-02-01T09:52:32.456Z,41.66
2017-02-01T09:53:32.086Z,41.86
2017-02-01T09:54:32.510Z,41.95
2017-02-01T09:55:32.788Z,41.95
2017-02-01T09:56:32.564Z,41.95
2017-02-01T09:57:32.589Z,41.66
2017-02-01T09:58:32.222Z,41.66
2017-02-01T09:59:32.247Z,41.66
2017-02-01T10:00:32.272Z,41.56
2017-02-01T10:01:32.303Z,41.56
2017-02-01T10:02:32.725Z,41.66
2017-02-01T10:03:32.750Z,41.66
2017-02-01T10:04:32.775Z,41.66
2017-02-01T10:05:32.800Z,41.66
2017-02-01T10:06:32.832Z,41.56
2017-02-01T10:07:32.853Z,41.95
2017-02-01T10:08:32.910Z,41.95
2017-02-01T10:09:32.907Z,41.86
2017-02-01T10:10:32.940Z,41.76
2017-02-01T10:11:32.960Z,42.05
2017-02-01T10:12:32.989Z,41.86
2017-02-01T10:13:32.617Z,42.05
2017-02-01T10:14:32.648Z,42.05
2017-02-01T10:15:33.071Z,42.05
2017-02-01T10:16:33.091Z,42.05
2017-02-01T10:17:33.120Z,42.05
2017-02-01T10:18:32.750Z,42.05
2017-02-01T10:19:33.174Z,42.14
2017-02-01T10:20:33.194Z,42.05
2017-02-01T10:21:33.226Z,42.05
2017-02-01T10:22:32.857Z,41.86
2017-02-01T10:23:33.280Z,42.05
2017-02-01T10:24:33.310Z,41.86
2017-02-01T10:25:33.326Z,41.95
2017-02-01T10:26:33.360Z,42.14
2017-02-01T10:27:32.989Z,42.05
2017-02-01T10:28:33.018Z,42.05
2017-02-01T10:29:33.045Z,42.05
2017-02-01T10:30:33.476Z,42.05
2017-02-01T10:31:33.742Z,41.95
2017-02-01T10:32:33.517Z,41.86
2017-02-01T10:33:33.150Z,41.56
2017-02-01T10:34:33.573Z,41.76
2017-02-01T10:35:33.202Z,41.95
2017-02-01T10:36:33.909Z,41.86
2017-02-01T10:37:33.654Z,41.76
2017-02-01T10:38:33.678Z,41.38
2017-02-01T10:39:33.706Z,41.18
2017-02-01T10:40:33.735Z,41.38
2017-02-01T10:41:33.610Z,41.56
2017-02-01T10:42:33.788Z,41.38
2017-02-01T10:43:33.806Z,41.47
2017-02-01T10:44:33.830Z,41.28
2017-02-01T10:45:33.862Z,41.38
2017-02-01T10:46:34.387Z,41.76
2017-02-01T10:47:33.520Z,41.28
2017-02-01T10:48:33.544Z,41.38
2017-02-01T10:49:33.573Z,41.56
2017-02-01T10:50:33.598Z,41.66
2017-02-01T10:51:33.623Z,41.56
2017-02-01T10:52:34.076Z,41.56
2017-02-01T10:53:34.073Z,40.99
2017-02-01T10:54:34.102Z,41.56
2017-02-01T10:55:34.127Z,41.47
2017-02-01T10:56:34.155Z,41.56
2017-02-01T10:57:34.186Z,41.56
2017-02-01T10:58:33.803Z,41.56
2017-02-01T10:59:34.233Z,41.66
2017-02-01T11:00:34.255Z,41.56
2017-02-01T11:01:33.890Z,41.56
2017-02-01T11:02:34.331Z,41.86
2017-02-01T11:03:33.945Z,41.56
2017-02-01T11:04:34.368Z,41.66
2017-02-01T11:05:33.993Z,41.47
2017-02-01T11:06:34.419Z,41.47
2017-02-01T11:07:34.082Z,41.47
2017-02-01T11:08:34.472Z,41.56
2017-02-01T11:09:34.099Z,41.66
2017-02-01T11:10:34.125Z,41.76
2017-02-01T11:11:34.154Z,40.99
2017-02-01T11:12:34.177Z,41.47
2017-02-01T11:13:34.606Z,41.18
2017-02-01T11:14:34.232Z,41.08
2017-02-01T11:15:34.262Z,41.08
2017-02-01T11:16:34.688Z,41.08
2017-02-01T11:17:34.706Z,40.99
2017-02-01T11:18:34.726Z,40.99
2017-02-01T11:19:34.765Z,40.99
2017-02-01T11:20:34.788Z,41.38
2017-02-01T11:21:34.812Z,40.99
2017-02-01T11:22:34.841Z,40.99
2017-02-01T11:23:34.865Z,41.08
2017-02-01T11:24:34.491Z,40.89
2017-02-01T11:25:34.919Z,40.99
2017-02-01T11:26:34.549Z,40.99
2017-02-01T11:27:35.221Z,41.18
2017-02-01T11:28:34.596Z,40.99
2017-02-01T11:29:35.022Z,41.28
2017-02-01T11:30:35.051Z,41.38
2017-02-01T11:31:35.075Z,41.08
2017-02-01T11:32:35.361Z,41.08
2017-02-01T11:33:35.132Z,41.18
2017-02-01T11:34:35.159Z,41.08
2017-02-01T11:35:35.177Z,41.38
2017-02-01T11:36:35.205Z,41.08
2017-02-01T11:37:35.486Z,41.08
2017-02-01T11:38:34.867Z,41.28
2017-02-01T11:39:35.285Z,41.28
2017-02-01T11:40:35.318Z,41.28
2017-02-01T11:41:34.940Z,41.08
2017-02-01T11:42:34.971Z,41.08
2017-02-01T11:43:35.392Z,41.28
2017-02-01T11:44:35.425Z,41.28
2017-02-01T11:45:35.450Z,41.38
2017-02-01T11:46:35.073Z,41.18
2017-02-01T11:47:35.102Z,41.08
2017-02-01T11:48:35.520Z,41.08
2017-02-01T11:49:35.551Z,41.38
2017-02-01T11:50:35.584Z,41.08
2017-02-01T11:51:35.613Z,41.18
2017-02-01T11:52:35.638Z,41.08
2017-02-01T11:53:35.260Z,41.38
2017-02-01T11:54:35.683Z,41.08
2017-02-01T11:55:35.311Z,41.08
2017-02-01T11:56:35.344Z,41.38
2017-02-01T11:57:35.759Z,41.08
2017-02-01T11:58:36.037Z,41.38
2017-02-01T11:59:35.819Z,41.47
2017-02-01T12:00:35.842Z,41.18
2017-02-01T12:01:35.868Z,41.38
2017-02-01T12:02:35.891Z,41.47
2017-02-01T12:03:36.173Z,41.18
2017-02-01T12:04:35.946Z,41.38
2017-02-01T12:05:35.972Z,41.38
2017-02-01T12:06:35.598Z,41.28
2017-02-01T12:07:36.024Z,41.47
2017-02-01T12:08:35.907Z,41.08
2017-02-01T12:09:36.077Z,41.38
2017-02-01T12:10:35.704Z,41.38
2017-02-01T12:11:35.733Z,41.47
2017-02-01T12:12:36.154Z,41.28
2017-02-01T12:13:36.430Z,41.28
2017-02-01T12:14:36.206Z,41.28
2017-02-01T12:15:35.834Z,41.28
2017-02-01T12:16:35.869Z,41.28
2017-02-01T12:17:36.286Z,41.28
2017-02-01T12:18:36.165Z,41.38
2017-02-01T12:19:36.338Z,40.99
2017-02-01T12:20:36.362Z,41.38
2017-02-01T12:21:36.390Z,41.28
2017-02-01T12:22:36.014Z,40.99
2017-02-01T12:23:36.295Z,41.08
2017-02-01T12:24:36.073Z,41.08
2017-02-01T12:25:36.494Z,41.47
2017-02-01T12:26:36.529Z,41.38
2017-02-01T12:27:36.151Z,41.08
2017-02-01T12:28:36.823Z,41.08
2017-02-01T12:29:36.606Z,41.38
2017-02-01T12:30:36.623Z,41.38
2017-02-01T12:31:36.658Z,41.38
2017-02-01T12:32:36.682Z,41.18
2017-02-01T12:33:36.306Z,41.18
2017-02-01T12:34:36.731Z,41.38
2017-02-01T12:35:36.360Z,40.89
2017-02-01T12:36:36.793Z,40.99
2017-02-01T12:37:36.814Z,40.99
2017-02-01T12:38:36.434Z,41.38
2017-02-01T12:39:36.863Z,40.99
2017-02-01T12:40:36.490Z,41.38
2017-02-01T12:41:36.521Z,41.47
2017-02-01T12:42:36.550Z,40.99
2017-02-01T12:43:36.975Z,41.18
2017-02-01T12:44:36.995Z,41.56
2017-02-01T12:45:37.020Z,41.47
2017-02-01T12:46:37.050Z,41.38
2017-02-01T12:47:36.673Z,41.47
2017-02-01T12:48:36.702Z,41.56
2017-02-01T12:49:36.983Z,41.66
2017-02-01T12:50:37.151Z,41.47
2017-02-01T12:51:37.176Z,41.56
2017-02-01T12:52:37.206Z,41.56
2017-02-01T12:53:37.231Z,41.56
2017-02-01T12:54:37.515Z,41.76